Explorer — C6TN4 — position and weather

sailwx.info

Track history (hours):
 
Tides and Currents Weather Stations Pressure Air Temp Water Temp Dewpoint Dewpoint Depression Visibility Wind Speed Wind Dir Waves Ship Positions

Explorer

Last reported at 2014-Oct-20 17:12 UTC. Time now 2014-Oct-23 11:00 UTC.
Position N 41°22' E 002°11'.

Length 180 m; draft 7.3 m.

Type: Passenger vessel. MMSI: 311705000.

Date/timePositionNaut miles runAvg speedWind from/ knotsBaromVisibWave heightAir tempDewpointWater temp
2014-Oct-20 17:12N 41°22' E 002°11'126 5.8
2014-Oct-19 19:33N 41°20' E 004°58'1612.5
2014-Oct-19 18:15N 41°20' E 005°20'2412.9
2014-Oct-19 16:22N 41°20' E 005°52'2413.1
2014-Oct-19 14:32N 41°20' E 006°25'1313.0
2014-Oct-19 13:31N 41°20' E 006°42'1513.5
2014-Oct-19 12:22N 41°20' E 007°03'2612.4
2014-Oct-19 10:16N 41°20' E 007°38'12312.6
2014-Oct-19 00:30N 41°41' E 010°19'  
2014-Oct-13 20:10N 39°09' E 003°43'813.6
2014-Oct-13 19:33N 39°05' E 003°34'1413.7
2014-Oct-13 18:34N 38°58' E 003°19'1413.7
2014-Oct-13 17:33N 38°51' E 003°04'1413.7
2014-Oct-13 16:33N 38°44' E 002°49'  
Track history (hours):
 
Tides and Currents Weather Stations Pressure Air Temp Water Temp Dewpoint Dewpoint Depression Visibility Wind Speed Wind Dir Waves Ship Positions

Explorer

Last reported at 2014-Oct-20 17:12 UTC. Time now 2014-Oct-23 11:00 UTC.
Position N 41°22' E 002°11'.

Length 180 m; draft 7.3 m.

Type: Passenger vessel. MMSI: 311705000.

Date/timePositionNaut miles runAvg speedWind from/ knotsBaromVisibWave heightAir tempDewpointWater temp
2014-Oct-20 17:12N 41°22' E 002°11'126 5.8
2014-Oct-19 19:33N 41°20' E 004°58'1612.5
2014-Oct-19 18:15N 41°20' E 005°20'2412.9
2014-Oct-19 16:22N 41°20' E 005°52'2413.1
2014-Oct-19 14:32N 41°20' E 006°25'1313.0
2014-Oct-19 13:31N 41°20' E 006°42'1513.5
2014-Oct-19 12:22N 41°20' E 007°03'2612.4
2014-Oct-19 10:16N 41°20' E 007°38'12312.6
2014-Oct-19 00:30N 41°41' E 010°19'  
2014-Oct-13 20:10N 39°09' E 003°43'813.6
2014-Oct-13 19:33N 39°05' E 003°34'1413.7
2014-Oct-13 18:34N 38°58' E 003°19'1413.7
2014-Oct-13 17:33N 38°51' E 003°04'1413.7
2014-Oct-13 16:33N 38°44' E 002°49'  

Dump ship's entire track history